Budaghers, New Mexico
Current Conditions -  °F | °C
As of 5:50 PM on Tuesday 27 Jan 2015 (Local Time) from KAEG Reporting Station
Scattered Clouds Scattered Clouds  
Wind Chill: 45°   Ceiling: Unl
Heat Index: 48°   Visibility: 10mi
Dew Point: 32°   Wind: 7mph
Humidity: 54%   Direction: 360°N
Pressure: 30.27"   Gusts: NA
Location:  35.4656°N, 106.615°W
Report Text: KAEG 280050Z 36006KT 10SM SCT080 09/00 A3027
Loading
Personal Weather Stations






























Interactive Weather Map New forecast layout! Learn more

10-Day Weather Forecast

Advertisements
Track Severe Weather on mobile